sensor_id;sensor_type;location;lat;lon;timestamp;temperature;humidity
12520;DHT22;6325;49.540;8.364;2024-03-08T00:01:09;6.60;99.90
12520;DHT22;6325;49.540;8.364;2024-03-08T00:03:36;6.60;99.90
12520;DHT22;6325;49.540;8.364;2024-03-08T00:06:03;6.40;99.90
12520;DHT22;6325;49.540;8.364;2024-03-08T00:08:31;6.20;99.90
12520;DHT22;6325;49.540;8.364;2024-03-08T00:10:58;6.30;99.90
12520;DHT22;6325;49.540;8.364;2024-03-08T00:13:26;6.00;99.90
12520;DHT22;6325;49.540;8.364;2024-03-08T00:15:53;5.60;99.90
12520;DHT22;6325;49.540;8.364;2024-03-08T00:18:21;6.40;99.90
12520;DHT22;6325;49.540;8.364;2024-03-08T00:20:48;6.30;99.90
12520;DHT22;6325;49.540;8.364;2024-03-08T00:23:15;6.00;99.90
12520;DHT22;6325;49.540;8.364;2024-03-08T00:25:42;6.00;99.90
12520;DHT22;6325;49.540;8.364;2024-03-08T00:28:08;6.20;99.90
12520;DHT22;6325;49.540;8.364;2024-03-08T00:30:40;5.90;99.90
12520;DHT22;6325;49.540;8.364;2024-03-08T00:33:08;6.00;99.90
12520;DHT22;6325;49.540;8.364;2024-03-08T00:35:35;5.50;99.90
12520;DHT22;6325;49.540;8.364;2024-03-08T00:38:01;5.90;99.90
12520;DHT22;6325;49.540;8.364;2024-03-08T00:40:28;5.90;99.90
12520;DHT22;6325;49.540;8.364;2024-03-08T00:42:55;5.90;99.90
12520;DHT22;6325;49.540;8.364;2024-03-08T00:45:22;5.90;99.90
12520;DHT22;6325;49.540;8.364;2024-03-08T00:47:50;6.00;99.90
12520;DHT22;6325;49.540;8.364;2024-03-08T00:50:17;5.80;99.90
12520;DHT22;6325;49.540;8.364;2024-03-08T00:52:44;5.60;99.90
12520;DHT22;6325;49.540;8.364;2024-03-08T00:55:12;5.10;99.90
12520;DHT22;6325;49.540;8.364;2024-03-08T00:57:39;5.70;99.90
12520;DHT22;6325;49.540;8.364;2024-03-08T01:00:06;5.90;99.90
12520;DHT22;6325;49.540;8.364;2024-03-08T01:02:37;5.60;99.90
12520;DHT22;6325;49.540;8.364;2024-03-08T01:05:06;5.60;99.90
12520;DHT22;6325;49.540;8.364;2024-03-08T01:07:33;5.80;99.90
12520;DHT22;6325;49.540;8.364;2024-03-08T01:10:00;5.10;99.90
12520;DHT22;6325;49.540;8.364;2024-03-08T01:12:27;5.90;99.90
12520;DHT22;6325;49.540;8.364;2024-03-08T01:14:54;5.80;99.90
12520;DHT22;6325;49.540;8.364;2024-03-08T01:17:22;6.00;99.90
12520;DHT22;6325;49.540;8.364;2024-03-08T01:19:49;5.30;99.90
12520;DHT22;6325;49.540;8.364;2024-03-08T01:22:17;5.30;99.90
12520;DHT22;6325;49.540;8.364;2024-03-08T01:24:44;5.40;99.90
12520;DHT22;6325;49.540;8.364;2024-03-08T01:27:11;5.00;99.90
12520;DHT22;6325;49.540;8.364;2024-03-08T01:29:37;4.90;99.90
12520;DHT22;6325;49.540;8.364;2024-03-08T01:32:05;5.70;99.90
12520;DHT22;6325;49.540;8.364;2024-03-08T01:34:32;5.30;99.90
12520;DHT22;6325;49.540;8.364;2024-03-08T01:36:58;4.60;99.90
12520;DHT22;6325;49.540;8.364;2024-03-08T01:39:27;5.10;99.90
12520;DHT22;6325;49.540;8.364;2024-03-08T01:41:54;4.40;99.90
12520;DHT22;6325;49.540;8.364;2024-03-08T01:44:21;5.20;99.90
12520;DHT22;6325;49.540;8.364;2024-03-08T01:47:24;4.90;99.90
12520;DHT22;6325;49.540;8.364;2024-03-08T01:50:18;4.80;99.90
12520;DHT22;6325;49.540;8.364;2024-03-08T01:52:45;4.70;99.90
12520;DHT22;6325;49.540;8.364;2024-03-08T01:55:13;4.80;99.90
12520;DHT22;6325;49.540;8.364;2024-03-08T01:57:41;4.80;99.90
12520;DHT22;6325;49.540;8.364;2024-03-08T02:00:08;4.70;99.90
12520;DHT22;6325;49.540;8.364;2024-03-08T02:02:37;4.50;99.90
12520;DHT22;6325;49.540;8.364;2024-03-08T02:05:05;5.40;99.90
12520;DHT22;6325;49.540;8.364;2024-03-08T02:07:32;5.20;99.90
12520;DHT22;6325;49.540;8.364;2024-03-08T02:09:58;4.70;99.90
12520;DHT22;6325;49.540;8.364;2024-03-08T02:12:27;4.60;99.90
12520;DHT22;6325;49.540;8.364;2024-03-08T02:14:54;4.80;99.90
12520;DHT22;6325;49.540;8.364;2024-03-08T02:17:21;5.00;99.90
12520;DHT22;6325;49.540;8.364;2024-03-08T02:19:48;4.30;99.90
12520;DHT22;6325;49.540;8.364;2024-03-08T02:22:16;4.40;99.90
12520;DHT22;6325;49.540;8.364;2024-03-08T02:24:43;5.00;99.90
12520;DHT22;6325;49.540;8.364;2024-03-08T02:27:10;4.60;99.90
12520;DHT22;6325;49.540;8.364;2024-03-08T02:29:38;4.40;99.90
12520;DHT22;6325;49.540;8.364;2024-03-08T02:32:06;4.20;99.90
12520;DHT22;6325;49.540;8.364;2024-03-08T02:34:33;4.00;99.90
12520;DHT22;6325;49.540;8.364;2024-03-08T02:37:00;4.10;99.90
12520;DHT22;6325;49.540;8.364;2024-03-08T02:39:28;4.40;99.90
12520;DHT22;6325;49.540;8.364;2024-03-08T02:41:54;4.30;99.90
12520;DHT22;6325;49.540;8.364;2024-03-08T02:44:21;5.00;99.90
12520;DHT22;6325;49.540;8.364;2024-03-08T02:46:48;4.30;99.90
12520;DHT22;6325;49.540;8.364;2024-03-08T02:49:15;4.20;99.90
12520;DHT22;6325;49.540;8.364;2024-03-08T02:51:42;4.60;99.90
12520;DHT22;6325;49.540;8.364;2024-03-08T02:54:09;4.40;99.90
12520;DHT22;6325;49.540;8.364;2024-03-08T02:56:37;4.40;99.90
12520;DHT22;6325;49.540;8.364;2024-03-08T02:59:04;4.30;99.90
12520;DHT22;6325;49.540;8.364;2024-03-08T03:01:31;3.60;99.90
12520;DHT22;6325;49.540;8.364;2024-03-08T03:03:58;4.20;99.90
12520;DHT22;6325;49.540;8.364;2024-03-08T03:06:25;4.20;99.90
12520;DHT22;6325;49.540;8.364;2024-03-08T03:08:52;3.90;99.90
12520;DHT22;6325;49.540;8.364;2024-03-08T03:11:19;4.40;99.90
12520;DHT22;6325;49.540;8.364;2024-03-08T03:13:47;4.10;99.90
12520;DHT22;6325;49.540;8.364;2024-03-08T03:16:17;4.40;99.90
12520;DHT22;6325;49.540;8.364;2024-03-08T03:18:45;4.40;99.90
12520;DHT22;6325;49.540;8.364;2024-03-08T03:21:12;4.20;99.90
12520;DHT22;6325;49.540;8.364;2024-03-08T03:23:38;4.20;99.90
12520;DHT22;6325;49.540;8.364;2024-03-08T03:26:06;4.30;99.90
12520;DHT22;6325;49.540;8.364;2024-03-08T03:28:33;4.30;99.90
12520;DHT22;6325;49.540;8.364;2024-03-08T03:31:01;4.40;99.90
12520;DHT22;6325;49.540;8.364;2024-03-08T03:33:28;4.50;99.90
12520;DHT22;6325;49.540;8.364;2024-03-08T03:35:55;4.20;99.90
12520;DHT22;6325;49.540;8.364;2024-03-08T03:38:22;4.50;99.90
12520;DHT22;6325;49.540;8.364;2024-03-08T03:40:48;4.60;99.90
12520;DHT22;6325;49.540;8.364;2024-03-08T03:43:18;3.90;99.90
12520;DHT22;6325;49.540;8.364;2024-03-08T03:45:44;4.70;99.90
12520;DHT22;6325;49.540;8.364;2024-03-08T03:48:12;4.50;99.90
12520;DHT22;6325;49.540;8.364;2024-03-08T03:50:39;4.10;99.90
12520;DHT22;6325;49.540;8.364;2024-03-08T03:53:06;4.00;99.90
12520;DHT22;6325;49.540;8.364;2024-03-08T03:55:33;3.40;99.90
12520;DHT22;6325;49.540;8.364;2024-03-08T03:58:00;4.40;99.90
12520;DHT22;6325;49.540;8.364;2024-03-08T04:00:28;3.40;99.90
12520;DHT22;6325;49.540;8.364;2024-03-08T04:02:55;4.00;99.90
12520;DHT22;6325;49.540;8.364;2024-03-08T04:05:26;4.10;99.90
12520;DHT22;6325;49.540;8.364;2024-03-08T04:07:52;4.00;99.90
12520;DHT22;6325;49.540;8.364;2024-03-08T04:10:19;4.00;99.90
12520;DHT22;6325;49.540;8.364;2024-03-08T04:12:46;3.90;99.90
12520;DHT22;6325;49.540;8.364;2024-03-08T04:15:13;4.30;99.90
12520;DHT22;6325;49.540;8.364;2024-03-08T04:17:40;4.10;99.90
12520;DHT22;6325;49.540;8.364;2024-03-08T04:20:07;4.10;99.90
12520;DHT22;6325;49.540;8.364;2024-03-08T04:22:36;4.00;99.90
12520;DHT22;6325;49.540;8.364;2024-03-08T04:25:05;4.10;99.90
12520;DHT22;6325;49.540;8.364;2024-03-08T04:27:32;4.00;99.90
12520;DHT22;6325;49.540;8.364;2024-03-08T04:29:59;3.90;99.90
12520;DHT22;6325;49.540;8.364;2024-03-08T04:32:26;4.10;99.90
12520;DHT22;6325;49.540;8.364;2024-03-08T04:34:54;4.10;99.90
12520;DHT22;6325;49.540;8.364;2024-03-08T04:37:22;3.90;99.90
12520;DHT22;6325;49.540;8.364;2024-03-08T04:39:50;3.90;99.90
12520;DHT22;6325;49.540;8.364;2024-03-08T04:42:17;3.40;99.90
12520;DHT22;6325;49.540;8.364;2024-03-08T04:44:44;4.00;99.90
12520;DHT22;6325;49.540;8.364;2024-03-08T04:47:11;4.00;99.90
12520;DHT22;6325;49.540;8.364;2024-03-08T04:49:38;3.60;99.90
12520;DHT22;6325;49.540;8.364;2024-03-08T04:52:05;3.70;99.90
12520;DHT22;6325;49.540;8.364;2024-03-08T04:54:32;3.50;99.90
12520;DHT22;6325;49.540;8.364;2024-03-08T04:57:01;3.50;99.90
12520;DHT22;6325;49.540;8.364;2024-03-08T04:59:27;3.00;99.90
12520;DHT22;6325;49.540;8.364;2024-03-08T05:01:55;3.40;99.90
12520;DHT22;6325;49.540;8.364;2024-03-08T05:04:21;3.80;99.90
12520;DHT22;6325;49.540;8.364;2024-03-08T05:06:48;4.00;99.90
12520;DHT22;6325;49.540;8.364;2024-03-08T05:09:15;2.90;99.90
12520;DHT22;6325;49.540;8.364;2024-03-08T05:11:43;2.80;99.90
12520;DHT22;6325;49.540;8.364;2024-03-08T05:14:12;3.30;99.90
12520;DHT22;6325;49.540;8.364;2024-03-08T05:16:42;3.10;99.90
12520;DHT22;6325;49.540;8.364;2024-03-08T05:19:08;3.10;99.90
12520;DHT22;6325;49.540;8.364;2024-03-08T05:21:35;3.20;99.90
12520;DHT22;6325;49.540;8.364;2024-03-08T05:24:02;3.20;99.90
12520;DHT22;6325;49.540;8.364;2024-03-08T05:26:29;3.20;99.90
12520;DHT22;6325;49.540;8.364;2024-03-08T05:28:59;3.30;99.90
12520;DHT22;6325;49.540;8.364;2024-03-08T05:31:27;3.30;99.90
12520;DHT22;6325;49.540;8.364;2024-03-08T05:33:54;3.60;99.90
12520;DHT22;6325;49.540;8.364;2024-03-08T05:36:21;3.60;99.90
12520;DHT22;6325;49.540;8.364;2024-03-08T05:38:48;3.20;99.90
12520;DHT22;6325;49.540;8.364;2024-03-08T05:41:16;3.10;99.90
12520;DHT22;6325;49.540;8.364;2024-03-08T05:43:42;2.60;99.90
12520;DHT22;6325;49.540;8.364;2024-03-08T05:46:09;3.10;99.90
12520;DHT22;6325;49.540;8.364;2024-03-08T05:48:38;3.20;99.90
12520;DHT22;6325;49.540;8.364;2024-03-08T05:51:05;3.60;99.90
12520;DHT22;6325;49.540;8.364;2024-03-08T05:53:31;3.30;99.90
12520;DHT22;6325;49.540;8.364;2024-03-08T05:55:59;2.90;99.90
12520;DHT22;6325;49.540;8.364;2024-03-08T05:58:27;3.50;99.90
12520;DHT22;6325;49.540;8.364;2024-03-08T06:00:55;3.40;99.90
12520;DHT22;6325;49.540;8.364;2024-03-08T06:03:22;2.50;99.90
12520;DHT22;6325;49.540;8.364;2024-03-08T06:05:50;2.30;99.90
12520;DHT22;6325;49.540;8.364;2024-03-08T06:08:17;2.90;99.90
12520;DHT22;6325;49.540;8.364;2024-03-08T06:10:44;2.80;99.90
12520;DHT22;6325;49.540;8.364;2024-03-08T06:13:14;2.40;99.90
12520;DHT22;6325;49.540;8.364;2024-03-08T06:15:40;3.30;99.90
12520;DHT22;6325;49.540;8.364;2024-03-08T06:18:07;3.00;99.90
12520;DHT22;6325;49.540;8.364;2024-03-08T06:20:36;3.00;99.90
12520;DHT22;6325;49.540;8.364;2024-03-08T06:23:04;3.00;99.90
12520;DHT22;6325;49.540;8.364;2024-03-08T06:25:31;3.60;99.90
12520;DHT22;6325;49.540;8.364;2024-03-08T06:27:57;2.90;99.90
12520;DHT22;6325;49.540;8.364;2024-03-08T06:30:24;3.40;99.90
12520;DHT22;6325;49.540;8.364;2024-03-08T06:32:51;3.50;99.90
12520;DHT22;6325;49.540;8.364;2024-03-08T06:35:18;3.20;99.90
12520;DHT22;6325;49.540;8.364;2024-03-08T06:37:45;3.50;99.90
12520;DHT22;6325;49.540;8.364;2024-03-08T06:40:14;3.60;99.90
12520;DHT22;6325;49.540;8.364;2024-03-08T06:42:40;2.80;99.90
12520;DHT22;6325;49.540;8.364;2024-03-08T06:45:07;3.50;99.90
12520;DHT22;6325;49.540;8.364;2024-03-08T06:47:35;3.40;99.90
12520;DHT22;6325;49.540;8.364;2024-03-08T06:50:02;2.90;99.90
12520;DHT22;6325;49.540;8.364;2024-03-08T06:52:31;3.60;99.90
12520;DHT22;6325;49.540;8.364;2024-03-08T06:54:58;3.70;99.90
12520;DHT22;6325;49.540;8.364;2024-03-08T06:57:28;3.30;99.90
12520;DHT22;6325;49.540;8.364;2024-03-08T06:59:55;3.30;99.90
12520;DHT22;6325;49.540;8.364;2024-03-08T07:02:22;3.50;99.90
12520;DHT22;6325;49.540;8.364;2024-03-08T07:04:50;3.90;99.90
12520;DHT22;6325;49.540;8.364;2024-03-08T07:07:16;3.20;99.90
12520;DHT22;6325;49.540;8.364;2024-03-08T07:09:45;4.20;99.90
12520;DHT22;6325;49.540;8.364;2024-03-08T07:12:14;3.80;99.90
12520;DHT22;6325;49.540;8.364;2024-03-08T07:14:43;4.30;99.90
12520;DHT22;6325;49.540;8.364;2024-03-08T07:17:11;4.50;99.90
12520;DHT22;6325;49.540;8.364;2024-03-08T07:19:38;3.70;99.90
12520;DHT22;6325;49.540;8.364;2024-03-08T07:22:04;4.20;99.90
12520;DHT22;6325;49.540;8.364;2024-03-08T07:24:34;4.40;99.90
12520;DHT22;6325;49.540;8.364;2024-03-08T07:27:16;4.30;99.90
12520;DHT22;6325;49.540;8.364;2024-03-08T07:29:44;4.90;99.90
12520;DHT22;6325;49.540;8.364;2024-03-08T07:32:11;4.40;99.90
12520;DHT22;6325;49.540;8.364;2024-03-08T07:34:47;5.00;99.90
12520;DHT22;6325;49.540;8.364;2024-03-08T07:37:13;4.30;99.90
12520;DHT22;6325;49.540;8.364;2024-03-08T07:39:40;4.60;99.90
12520;DHT22;6325;49.540;8.364;2024-03-08T07:42:07;5.10;99.90
12520;DHT22;6325;49.540;8.364;2024-03-08T07:44:34;5.00;99.90
12520;DHT22;6325;49.540;8.364;2024-03-08T07:47:02;5.80;99.90
12520;DHT22;6325;49.540;8.364;2024-03-08T07:49:29;4.90;99.90
12520;DHT22;6325;49.540;8.364;2024-03-08T07:51:56;4.70;99.90
12520;DHT22;6325;49.540;8.364;2024-03-08T07:54:23;5.20;99.90
12520;DHT22;6325;49.540;8.364;2024-03-08T07:56:51;5.50;99.90
12520;DHT22;6325;49.540;8.364;2024-03-08T07:59:18;5.50;99.90
12520;DHT22;6325;49.540;8.364;2024-03-08T08:01:46;5.80;99.90
12520;DHT22;6325;49.540;8.364;2024-03-08T08:04:14;5.90;99.90
12520;DHT22;6325;49.540;8.364;2024-03-08T08:06:43;6.20;99.90
12520;DHT22;6325;49.540;8.364;2024-03-08T08:09:10;6.40;99.90
12520;DHT22;6325;49.540;8.364;2024-03-08T08:11:40;6.50;99.90
12520;DHT22;6325;49.540;8.364;2024-03-08T08:14:08;6.50;99.90
12520;DHT22;6325;49.540;8.364;2024-03-08T08:16:35;6.60;99.90
12520;DHT22;6325;49.540;8.364;2024-03-08T08:19:03;6.70;99.90
12520;DHT22;6325;49.540;8.364;2024-03-08T08:21:34;6.90;99.90
12520;DHT22;6325;49.540;8.364;2024-03-08T08:24:02;7.20;99.90
12520;DHT22;6325;49.540;8.364;2024-03-08T08:26:29;7.30;99.90
12520;DHT22;6325;49.540;8.364;2024-03-08T08:28:56;6.90;99.90
12520;DHT22;6325;49.540;8.364;2024-03-08T08:31:22;7.70;99.90
12520;DHT22;6325;49.540;8.364;2024-03-08T08:33:49;6.90;99.90
12520;DHT22;6325;49.540;8.364;2024-03-08T08:36:19;7.30;99.90
12520;DHT22;6325;49.540;8.364;2024-03-08T08:38:47;7.90;99.90
12520;DHT22;6325;49.540;8.364;2024-03-08T08:41:14;7.60;99.90
12520;DHT22;6325;49.540;8.364;2024-03-08T08:43:42;7.50;99.90
12520;DHT22;6325;49.540;8.364;2024-03-08T08:46:10;7.50;99.90
12520;DHT22;6325;49.540;8.364;2024-03-08T08:48:38;7.60;99.90
12520;DHT22;6325;49.540;8.364;2024-03-08T08:51:06;8.00;99.90
12520;DHT22;6325;49.540;8.364;2024-03-08T08:53:37;8.00;99.90
12520;DHT22;6325;49.540;8.364;2024-03-08T08:56:07;7.90;99.90
12520;DHT22;6325;49.540;8.364;2024-03-08T08:58:34;8.10;99.90
12520;DHT22;6325;49.540;8.364;2024-03-08T09:01:01;7.80;99.90
12520;DHT22;6325;49.540;8.364;2024-03-08T09:03:28;8.10;99.90
12520;DHT22;6325;49.540;8.364;2024-03-08T09:05:55;7.70;99.90
12520;DHT22;6325;49.540;8.364;2024-03-08T09:08:22;7.50;99.90
12520;DHT22;6325;49.540;8.364;2024-03-08T09:10:50;8.20;99.90
12520;DHT22;6325;49.540;8.364;2024-03-08T09:13:18;7.80;99.90
12520;DHT22;6325;49.540;8.364;2024-03-08T09:15:45;8.10;99.90
12520;DHT22;6325;49.540;8.364;2024-03-08T09:18:12;8.30;99.90
12520;DHT22;6325;49.540;8.364;2024-03-08T09:20:38;8.20;99.90
12520;DHT22;6325;49.540;8.364;2024-03-08T09:23:06;8.40;99.90
12520;DHT22;6325;49.540;8.364;2024-03-08T09:25:33;8.00;99.90
12520;DHT22;6325;49.540;8.364;2024-03-08T09:28:00;8.30;99.90
12520;DHT22;6325;49.540;8.364;2024-03-08T09:30:28;8.50;99.90
12520;DHT22;6325;49.540;8.364;2024-03-08T09:32:55;8.90;99.90
12520;DHT22;6325;49.540;8.364;2024-03-08T09:35:22;8.90;99.90
12520;DHT22;6325;49.540;8.364;2024-03-08T09:37:48;8.70;99.90
12520;DHT22;6325;49.540;8.364;2024-03-08T09:40:17;9.30;99.90
12520;DHT22;6325;49.540;8.364;2024-03-08T09:42:45;9.20;99.90
12520;DHT22;6325;49.540;8.364;2024-03-08T09:45:12;8.70;99.90
12520;DHT22;6325;49.540;8.364;2024-03-08T09:47:43;9.00;99.90
12520;DHT22;6325;49.540;8.364;2024-03-08T09:50:11;9.20;99.90
12520;DHT22;6325;49.540;8.364;2024-03-08T09:52:38;8.90;99.90
12520;DHT22;6325;49.540;8.364;2024-03-08T09:55:06;9.80;99.90
12520;DHT22;6325;49.540;8.364;2024-03-08T09:57:33;9.40;99.90
12520;DHT22;6325;49.540;8.364;2024-03-08T10:00:00;9.00;99.90
12520;DHT22;6325;49.540;8.364;2024-03-08T10:02:27;9.30;99.90
12520;DHT22;6325;49.540;8.364;2024-03-08T10:04:57;10.00;99.90
12520;DHT22;6325;49.540;8.364;2024-03-08T10:07:24;9.60;99.90
12520;DHT22;6325;49.540;8.364;2024-03-08T10:09:52;9.40;99.90
12520;DHT22;6325;49.540;8.364;2024-03-08T10:12:19;9.40;99.90
12520;DHT22;6325;49.540;8.364;2024-03-08T10:14:46;9.30;99.90
12520;DHT22;6325;49.540;8.364;2024-03-08T10:17:13;10.20;99.90
12520;DHT22;6325;49.540;8.364;2024-03-08T10:19:49;10.40;99.90
12520;DHT22;6325;49.540;8.364;2024-03-08T10:22:18;10.60;99.90
12520;DHT22;6325;49.540;8.364;2024-03-08T10:24:45;10.60;99.90
12520;DHT22;6325;49.540;8.364;2024-03-08T10:27:12;10.70;99.90
12520;DHT22;6325;49.540;8.364;2024-03-08T10:29:39;10.60;99.90
12520;DHT22;6325;49.540;8.364;2024-03-08T10:32:09;10.30;99.90
12520;DHT22;6325;49.540;8.364;2024-03-08T10:34:37;10.60;99.90
12520;DHT22;6325;49.540;8.364;2024-03-08T10:37:04;10.30;99.90
12520;DHT22;6325;49.540;8.364;2024-03-08T10:39:35;10.60;99.90
12520;DHT22;6325;49.540;8.364;2024-03-08T10:42:03;11.40;99.90
12520;DHT22;6325;49.540;8.364;2024-03-08T10:44:43;11.30;99.90
12520;DHT22;6325;49.540;8.364;2024-03-08T10:47:18;11.10;99.90
12520;DHT22;6325;49.540;8.364;2024-03-08T10:49:51;10.80;99.90
12520;DHT22;6325;49.540;8.364;2024-03-08T10:52:21;11.10;99.90
12520;DHT22;6325;49.540;8.364;2024-03-08T10:54:51;11.30;99.90
12520;DHT22;6325;49.540;8.364;2024-03-08T10:57:19;11.00;99.90
12520;DHT22;6325;49.540;8.364;2024-03-08T10:59:49;11.80;99.90
12520;DHT22;6325;49.540;8.364;2024-03-08T11:02:17;11.10;99.90
12520;DHT22;6325;49.540;8.364;2024-03-08T11:04:48;11.20;99.90
12520;DHT22;6325;49.540;8.364;2024-03-08T11:07:16;11.60;99.90
12520;DHT22;6325;49.540;8.364;2024-03-08T11:09:46;11.50;99.90
12520;DHT22;6325;49.540;8.364;2024-03-08T11:12:22;11.30;99.90
12520;DHT22;6325;49.540;8.364;2024-03-08T11:14:52;12.10;99.90
12520;DHT22;6325;49.540;8.364;2024-03-08T11:17:39;11.80;99.90
12520;DHT22;6325;49.540;8.364;2024-03-08T11:20:10;11.40;99.90
12520;DHT22;6325;49.540;8.364;2024-03-08T11:22:41;11.60;99.90
12520;DHT22;6325;49.540;8.364;2024-03-08T11:25:31;12.00;99.90
12520;DHT22;6325;49.540;8.364;2024-03-08T11:28:09;12.00;99.90
12520;DHT22;6325;49.540;8.364;2024-03-08T11:30:42;11.70;99.90
12520;DHT22;6325;49.540;8.364;2024-03-08T11:33:11;12.20;99.90
12520;DHT22;6325;49.540;8.364;2024-03-08T11:35:39;11.70;99.90
12520;DHT22;6325;49.540;8.364;2024-03-08T11:38:07;12.20;99.90
12520;DHT22;6325;49.540;8.364;2024-03-08T11:40:34;11.40;99.90
12520;DHT22;6325;49.540;8.364;2024-03-08T11:43:02;11.90;99.90
12520;DHT22;6325;49.540;8.364;2024-03-08T11:45:34;12.10;99.90
12520;DHT22;6325;49.540;8.364;2024-03-08T11:48:02;12.10;99.90
12520;DHT22;6325;49.540;8.364;2024-03-08T11:50:30;11.80;99.90
12520;DHT22;6325;49.540;8.364;2024-03-08T11:53:02;12.80;99.90
12520;DHT22;6325;49.540;8.364;2024-03-08T11:55:30;13.20;99.90
12520;DHT22;6325;49.540;8.364;2024-03-08T11:58:02;13.00;99.90
12520;DHT22;6325;49.540;8.364;2024-03-08T12:00:29;12.80;99.90
12520;DHT22;6325;49.540;8.364;2024-03-08T12:03:06;12.90;99.90
12520;DHT22;6325;49.540;8.364;2024-03-08T12:05:33;13.30;99.90
12520;DHT22;6325;49.540;8.364;2024-03-08T12:08:01;13.10;99.90
12520;DHT22;6325;49.540;8.364;2024-03-08T12:10:28;13.20;99.90
12520;DHT22;6325;49.540;8.364;2024-03-08T12:12:57;13.10;99.90
12520;DHT22;6325;49.540;8.364;2024-03-08T12:15:25;13.20;99.90
12520;DHT22;6325;49.540;8.364;2024-03-08T12:17:53;13.20;99.90
12520;DHT22;6325;49.540;8.364;2024-03-08T12:20:24;13.30;99.90
12520;DHT22;6325;49.540;8.364;2024-03-08T12:22:52;12.90;99.90
12520;DHT22;6325;49.540;8.364;2024-03-08T12:25:22;12.80;99.90
12520;DHT22;6325;49.540;8.364;2024-03-08T12:27:49;13.50;99.90
12520;DHT22;6325;49.540;8.364;2024-03-08T12:30:19;13.20;99.90
12520;DHT22;6325;49.540;8.364;2024-03-08T12:32:50;13.70;99.90
12520;DHT22;6325;49.540;8.364;2024-03-08T12:35:18;12.70;99.90
12520;DHT22;6325;49.540;8.364;2024-03-08T12:37:50;13.10;99.90
12520;DHT22;6325;49.540;8.364;2024-03-08T12:40:18;13.40;99.90
12520;DHT22;6325;49.540;8.364;2024-03-08T12:42:46;13.90;99.90
12520;DHT22;6325;49.540;8.364;2024-03-08T12:45:14;13.70;99.90
12520;DHT22;6325;49.540;8.364;2024-03-08T12:47:41;13.20;99.90
12520;DHT22;6325;49.540;8.364;2024-03-08T12:50:09;12.80;99.90
12520;DHT22;6325;49.540;8.364;2024-03-08T12:52:36;13.50;99.90
12520;DHT22;6325;49.540;8.364;2024-03-08T12:55:05;13.70;99.90
12520;DHT22;6325;49.540;8.364;2024-03-08T12:57:33;13.70;99.90
12520;DHT22;6325;49.540;8.364;2024-03-08T13:00:01;13.80;99.90
12520;DHT22;6325;49.540;8.364;2024-03-08T13:02:29;13.70;99.90
12520;DHT22;6325;49.540;8.364;2024-03-08T13:04:58;13.80;99.90
12520;DHT22;6325;49.540;8.364;2024-03-08T13:07:25;13.30;99.90
12520;DHT22;6325;49.540;8.364;2024-03-08T13:09:52;13.30;99.90
12520;DHT22;6325;49.540;8.364;2024-03-08T13:12:21;14.00;99.90
12520;DHT22;6325;49.540;8.364;2024-03-08T13:14:49;13.70;99.90
12520;DHT22;6325;49.540;8.364;2024-03-08T13:17:16;13.60;99.90
12520;DHT22;6325;49.540;8.364;2024-03-08T13:19:43;14.30;99.90
12520;DHT22;6325;49.540;8.364;2024-03-08T13:22:10;14.40;99.90
12520;DHT22;6325;49.540;8.364;2024-03-08T13:24:39;14.50;99.90
12520;DHT22;6325;49.540;8.364;2024-03-08T13:27:07;15.00;99.90
12520;DHT22;6325;49.540;8.364;2024-03-08T13:29:46;15.50;99.90
12520;DHT22;6325;49.540;8.364;2024-03-08T13:32:14;15.90;99.90
12520;DHT22;6325;49.540;8.364;2024-03-08T13:34:41;16.00;99.90
12520;DHT22;6325;49.540;8.364;2024-03-08T13:39:35;17.00;99.90
12520;DHT22;6325;49.540;8.364;2024-03-08T13:42:07;16.60;99.90
12520;DHT22;6325;49.540;8.364;2024-03-08T13:44:35;16.90;99.90
12520;DHT22;6325;49.540;8.364;2024-03-08T13:47:04;16.20;99.80
12520;DHT22;6325;49.540;8.364;2024-03-08T13:49:32;16.30;99.90
12520;DHT22;6325;49.540;8.364;2024-03-08T13:52:00;16.10;99.90
12520;DHT22;6325;49.540;8.364;2024-03-08T13:54:26;15.30;99.90
12520;DHT22;6325;49.540;8.364;2024-03-08T13:56:56;14.80;99.90
12520;DHT22;6325;49.540;8.364;2024-03-08T13:59:23;14.20;99.90
12520;DHT22;6325;49.540;8.364;2024-03-08T14:01:55;14.10;99.90
12520;DHT22;6325;49.540;8.364;2024-03-08T14:04:23;14.00;99.90
12520;DHT22;6325;49.540;8.364;2024-03-08T14:06:51;13.70;99.90
12520;DHT22;6325;49.540;8.364;2024-03-08T14:09:22;13.90;99.90
12520;DHT22;6325;49.540;8.364;2024-03-08T14:11:50;14.10;99.90
12520;DHT22;6325;49.540;8.364;2024-03-08T14:14:19;13.90;99.90
12520;DHT22;6325;49.540;8.364;2024-03-08T14:16:46;13.60;99.90
12520;DHT22;6325;49.540;8.364;2024-03-08T14:19:13;13.70;99.90
12520;DHT22;6325;49.540;8.364;2024-03-08T14:21:42;13.70;99.90
12520;DHT22;6325;49.540;8.364;2024-03-08T14:24:08;13.70;99.90
12520;DHT22;6325;49.540;8.364;2024-03-08T14:26:35;13.50;99.90
12520;DHT22;6325;49.540;8.364;2024-03-08T14:29:04;13.40;99.90
12520;DHT22;6325;49.540;8.364;2024-03-08T14:31:31;12.90;99.90
12520;DHT22;6325;49.540;8.364;2024-03-08T14:33:57;13.10;99.90
12520;DHT22;6325;49.540;8.364;2024-03-08T14:36:24;13.50;99.90
12520;DHT22;6325;49.540;8.364;2024-03-08T14:38:53;13.40;99.90
12520;DHT22;6325;49.540;8.364;2024-03-08T14:41:20;13.80;99.90
12520;DHT22;6325;49.540;8.364;2024-03-08T14:43:47;13.20;99.90
12520;DHT22;6325;49.540;8.364;2024-03-08T14:46:15;12.90;99.90
12520;DHT22;6325;49.540;8.364;2024-03-08T14:48:42;13.40;99.90
12520;DHT22;6325;49.540;8.364;2024-03-08T14:51:09;13.50;99.90
12520;DHT22;6325;49.540;8.364;2024-03-08T14:53:40;13.00;99.90
12520;DHT22;6325;49.540;8.364;2024-03-08T14:56:08;13.50;99.90
12520;DHT22;6325;49.540;8.364;2024-03-08T14:58:35;14.10;99.90
12520;DHT22;6325;49.540;8.364;2024-03-08T15:01:04;14.40;99.90
12520;DHT22;6325;49.540;8.364;2024-03-08T15:03:35;15.10;99.90
12520;DHT22;6325;49.540;8.364;2024-03-08T15:06:02;15.90;99.90
12520;DHT22;6325;49.540;8.364;2024-03-08T15:08:34;15.80;99.90
12520;DHT22;6325;49.540;8.364;2024-03-08T15:11:00;15.80;99.90
12520;DHT22;6325;49.540;8.364;2024-03-08T15:13:29;16.40;99.90
12520;DHT22;6325;49.540;8.364;2024-03-08T15:16:05;16.30;99.90
12520;DHT22;6325;49.540;8.364;2024-03-08T15:18:33;16.60;99.90
12520;DHT22;6325;49.540;8.364;2024-03-08T15:21:04;16.80;99.90
12520;DHT22;6325;49.540;8.364;2024-03-08T15:23:33;16.30;99.90
12520;DHT22;6325;49.540;8.364;2024-03-08T15:26:00;16.80;99.60
12520;DHT22;6325;49.540;8.364;2024-03-08T15:28:29;17.30;98.00
12520;DHT22;6325;49.540;8.364;2024-03-08T15:31:02;17.50;98.30
12520;DHT22;6325;49.540;8.364;2024-03-08T15:33:32;17.10;98.40
12520;DHT22;6325;49.540;8.364;2024-03-08T15:35:59;16.70;98.60
12520;DHT22;6325;49.540;8.364;2024-03-08T15:38:29;17.30;98.50
12520;DHT22;6325;49.540;8.364;2024-03-08T15:40:57;16.80;97.60
12520;DHT22;6325;49.540;8.364;2024-03-08T15:43:24;17.00;97.50
12520;DHT22;6325;49.540;8.364;2024-03-08T15:45:53;16.80;97.60
12520;DHT22;6325;49.540;8.364;2024-03-08T15:48:20;17.60;98.60
12520;DHT22;6325;49.540;8.364;2024-03-08T15:50:48;17.00;96.70
12520;DHT22;6325;49.540;8.364;2024-03-08T15:53:15;17.90;96.80
12520;DHT22;6325;49.540;8.364;2024-03-08T15:55:41;17.70;95.80
12520;DHT22;6325;49.540;8.364;2024-03-08T15:58:10;17.80;95.50
12520;DHT22;6325;49.540;8.364;2024-03-08T16:00:37;18.30;95.60
12520;DHT22;6325;49.540;8.364;2024-03-08T16:03:13;17.80;95.70